Aérodrome :
LOGIN :

S'inscrire | Disclaimer

   EN    FR    IT 

 










Légende :    VFR   VFR Marginal   IFR   IFR Intensif   IFR Très Intensif
Visi : 
Plafond : 
>= 8 km
>= 3000ft
5 à 8 km
1000 à 3000 ft
1500m à 5 km
500 à 1000 ft
800 à 1500m
200 à 500 ft
< 800m
< 200 ft
Symboles :   Orages  Brouillard  Fortes neiges  Fortes précipitations  Vent > 20 kt
SIGMETs :   Divers  Orages  Givrage  Turbulence  Onde Orograph.  Cendres Volcan.






- Altitude de l'aérodrome : 423 ft
- Code IATA : PIS


LFBI - Poitiers

DERNIER METAR :
  • 272000Z AUTO 31005KT CAVOK 05/02 Q1018 NOSIG

METARs EXPIRÉS :
  • 271930Z AUTO VRB03KT CAVOK 05/02 Q1017 NOSIG
  • 271900Z AUTO 33006KT 9999 FEW037 06/03 Q1017 NOSIG
  • 271830Z AUTO 31006KT 9999 FEW036 07/02 Q1016 NOSIG
  • 271800Z AUTO 31009KT 9999 FEW036 07/03 Q1015 NOSIG
  • 271730Z AUTO 30011KT 9999 FEW037 08/03 Q1014 NOSIG

TAF TAF LFBI
Valide du 27 à 18h jusqu'au 28 à 18h UTC


271700Z 2718/2818 32012KT 9999 SCT040
BECMG 2718/2721 30005KT
BECMG 2722/2801 16005KT
BECMG 2804/2806 BKN012
TEMPO 2808/2816 2000 -DZ BKN005
BECMG 2816/2818 BKN020



MET'MAP, la Météo Aéronautique d'un coup d'oeil ! - Copyright ORBIFLY Décembre 2007 - Disclaimer

ORBIFLY MET'MAP TEAM :

Programmation & Développement : Alexandra Zaïnal
Sur une idée originale de : Baudouin d'Aumeries
Assistance à la programmation : Marc-Olivier Méhu
Soutien technique & logistique : Manuel Goepfert

Contact : metmap@orbifly.com




SOURCES & CREDITS :

   NOAA